createdAt,value
2022-08-07T00:00:12.440Z,96184.00
2022-08-07T00:02:41.611Z,96186.69
2022-08-07T00:05:11.173Z,96179.69
2022-08-07T00:07:41.154Z,96180.47
2022-08-07T00:10:26.340Z,96181.22
2022-08-07T00:13:00.814Z,96185.38
2022-08-07T00:15:35.956Z,96174.75
2022-08-07T00:18:19.889Z,96160.09
2022-08-07T00:20:50.643Z,96167.75
2022-08-07T00:23:17.211Z,96170.44
2022-08-07T00:25:43.708Z,96172.50
2022-08-07T00:28:12.465Z,96157.97
2022-08-07T00:30:41.883Z,96168.06
2022-08-07T00:33:08.259Z,96159.78
2022-08-07T00:35:35.289Z,96151.72
2022-08-07T00:38:03.139Z,96154.00
2022-08-07T00:40:40.079Z,96165.63
2022-08-07T00:43:09.985Z,96148.72
2022-08-07T00:45:37.241Z,96155.94
2022-08-07T00:48:08.373Z,96151.31
2022-08-07T00:50:50.646Z,96159.03
2022-08-07T00:53:17.992Z,96158.31
2022-08-07T00:56:00.508Z,96156.03
2022-08-07T00:58:30.167Z,96151.72
2022-08-07T01:00:56.581Z,96146.78
2022-08-07T01:03:56.411Z,96146.78
2022-08-07T01:06:09.365Z,96150.63
2022-08-07T01:08:35.751Z,96143.63
2022-08-07T01:11:11.878Z,96138.28
2022-08-07T01:13:56.097Z,96136.13
2022-08-07T01:16:30.457Z,96136.22
2022-08-07T01:18:57.222Z,96133.09
2022-08-07T01:21:26.112Z,96128.16
2022-08-07T01:23:53.384Z,96136.22
2022-08-07T01:26:20.253Z,96131.16
2022-08-07T01:28:48.512Z,96134.19
2022-08-07T01:31:15.371Z,96135.78
2022-08-07T01:33:55.119Z,96141.16
2022-08-07T01:36:22.920Z,96137.31
2022-08-07T01:39:00.618Z,96140.41
2022-08-07T01:41:27.092Z,96154.94
2022-08-07T01:43:53.473Z,96155.34
2022-08-07T01:46:19.888Z,96158.94
2022-08-07T01:48:47.889Z,96147.28
2022-08-07T01:52:01.071Z,96147.41
2022-08-07T01:54:12.119Z,96149.22
2022-08-07T01:56:39.271Z,96143.53
2022-08-07T01:59:05.708Z,96144.69
2022-08-07T02:02:00.182Z,96151.16
2022-08-07T02:04:18.742Z,96146.97
2022-08-07T02:06:45.864Z,96148.91
2022-08-07T02:09:51.558Z,96149.97
2022-08-07T02:12:05.005Z,96151.50
2022-08-07T02:14:35.925Z,96148.47
2022-08-07T02:17:07.059Z,96145.00
2022-08-07T02:20:05.280Z,96147.69
2022-08-07T02:22:19.843Z,96151.16
2022-08-07T02:24:46.808Z,96151.91
2022-08-07T02:27:14.916Z,96153.00
2022-08-07T02:29:48.742Z,96140.97
2022-08-07T02:32:23.388Z,96134.94
2022-08-07T02:34:53.431Z,96132.75
2022-08-07T02:37:19.916Z,96132.75
2022-08-07T02:40:02.463Z,96138.25
2022-08-07T02:42:32.771Z,96127.47
2022-08-07T02:44:59.149Z,96126.00
2022-08-07T02:47:25.843Z,96131.38
2022-08-07T02:49:56.260Z,96132.88
2022-08-07T02:52:32.084Z,96132.44
2022-08-07T02:54:58.870Z,96130.94
2022-08-07T02:57:25.274Z,96126.31
2022-08-07T03:00:01.372Z,96122.88
2022-08-07T03:02:31.628Z,96119.41
2022-08-07T03:04:58.815Z,96118.66
2022-08-07T03:08:05.410Z,96120.84
2022-08-07T03:10:11.598Z,96109.69
2022-08-07T03:12:40.745Z,96106.19
2022-08-07T03:15:07.791Z,96102.09
2022-08-07T03:17:52.702Z,96098.34
2022-08-07T03:20:20.496Z,96090.69
2022-08-07T03:22:49.989Z,96089.19
2022-08-07T03:25:16.782Z,96096.81
2022-08-07T03:27:59.047Z,96094.59
2022-08-07T03:30:26.361Z,96090.38
2022-08-07T03:32:58.573Z,96097.59
2022-08-07T03:35:26.326Z,96094.44
2022-08-07T03:37:53.542Z,96086.81
2022-08-07T03:40:22.145Z,96093.38
2022-08-07T03:42:49.339Z,96089.19
2022-08-07T03:45:30.141Z,96085.31
2022-08-07T03:47:58.876Z,96090.91
2022-08-07T03:50:25.380Z,96087.53
2022-08-07T03:52:55.152Z,96083.59
2022-08-07T03:55:21.524Z,96084.91
2022-08-07T03:58:33.470Z,96081.53
2022-08-07T04:00:35.636Z,96076.16
2022-08-07T04:03:04.058Z,96081.22
2022-08-07T04:05:40.967Z,96082.31
2022-08-07T04:08:08.643Z,96080.81
2022-08-07T04:10:39.031Z,96082.00
2022-08-07T04:13:15.506Z,96079.31
2022-08-07T04:15:42.016Z,96080.47
2022-08-07T04:18:58.619Z,96093.91
2022-08-07T04:20:55.829Z,96088.88
2022-08-07T04:23:22.211Z,96084.69
2022-08-07T04:25:48.600Z,96077.69
2022-08-07T04:28:15.725Z,96090.25
2022-08-07T04:30:56.844Z,96077.47
2022-08-07T04:33:25.225Z,96080.69
2022-08-07T04:35:53.958Z,96091.56
2022-08-07T04:38:20.724Z,96089.31
2022-08-07T04:40:51.914Z,96094.69
2022-08-07T04:43:19.465Z,96092.44
2022-08-07T04:46:00.521Z,96098.56
2022-08-07T04:48:29.417Z,96101.25
2022-08-07T04:50:57.193Z,96105.13
2022-08-07T04:53:40.193Z,96110.06
2022-08-07T04:58:13.070Z,96119.31
2022-08-07T05:01:42.884Z,96128.16
2022-08-07T05:04:12.319Z,96124.69
2022-08-07T05:06:51.783Z,96126.19
2022-08-07T05:09:19.755Z,96129.53
2022-08-07T05:12:06.159Z,96127.38
2022-08-07T05:14:53.261Z,96124.69
2022-08-07T05:17:52.345Z,96126.19
2022-08-07T05:20:09.652Z,96135.13
2022-08-07T05:22:36.480Z,96128.16
2022-08-07T05:25:03.253Z,96127.06
2022-08-07T05:28:03.123Z,96130.50
2022-08-07T05:30:30.106Z,96127.06
2022-08-07T05:32:59.571Z,96127.78
2022-08-07T05:35:33.564Z,96127.06
2022-08-07T05:38:08.962Z,96127.06
2022-08-07T05:40:36.221Z,96130.84
2022-08-07T05:43:02.637Z,96127.38
2022-08-07T05:45:47.869Z,96140.38
2022-08-07T05:48:14.728Z,96141.94
2022-08-07T05:50:42.961Z,96136.53
2022-08-07T05:54:12.422Z,96130.63
2022-08-07T05:56:02.111Z,96143.84
2022-08-07T05:58:37.113Z,96143.06
2022-08-07T06:01:05.939Z,96135.78
2022-08-07T06:03:56.646Z,96148.47
2022-08-07T06:06:21.229Z,96150.81
2022-08-07T06:08:48.229Z,96151.59
2022-08-07T06:11:17.998Z,96154.38
2022-08-07T06:14:11.851Z,96155.88
2022-08-07T06:16:33.583Z,96151.25
2022-08-07T06:19:00.007Z,96153.19
2022-08-07T06:22:14.628Z,96156.66
2022-08-07T06:24:48.224Z,96155.44
2022-08-07T06:26:59.151Z,96157.19
2022-08-07T06:29:30.051Z,96161.38
2022-08-07T06:31:56.414Z,96153.22
2022-08-07T06:34:22.778Z,96156.22
2022-08-07T06:36:51.881Z,96153.50
2022-08-07T06:40:17.020Z,96160.81
2022-08-07T06:42:05.413Z,96152.75
2022-08-07T06:44:36.556Z,96152.44
2022-08-07T06:47:10.057Z,96165.44
2022-08-07T06:49:51.145Z,96151.25
2022-08-07T06:52:31.474Z,96156.28
2022-08-07T06:55:34.250Z,96154.69
2022-08-07T06:57:50.971Z,96155.13
2022-08-07T07:00:21.420Z,96145.53
2022-08-07T07:02:53.461Z,96155.44
2022-08-07T07:06:02.959Z,96160.81
2022-08-07T07:08:12.258Z,96156.47
2022-08-07T07:10:38.965Z,96152.25
2022-08-07T07:13:15.574Z,96147.38
2022-08-07T07:15:43.071Z,96151.69
2022-08-07T07:18:11.845Z,96150.59
2022-08-07T07:20:38.252Z,96147.16
2022-08-07T07:24:11.129Z,96157.16
2022-08-07T07:26:35.672Z,96151.78
2022-08-07T07:28:48.275Z,96149.09
2022-08-07T07:31:30.355Z,96156.75
2022-08-07T07:34:06.473Z,96155.13
2022-08-07T07:36:33.173Z,96149.84
2022-08-07T07:39:00.693Z,96145.22
2022-08-07T07:41:30.919Z,96145.13
2022-08-07T07:44:21.309Z,96143.94
2022-08-07T07:46:55.200Z,96142.78
2022-08-07T07:50:33.699Z,96138.47
2022-08-07T07:52:10.276Z,96146.84
2022-08-07T07:54:36.693Z,96142.44
2022-08-07T07:57:03.136Z,96148.56
2022-08-07T07:59:52.655Z,96144.38
2022-08-07T08:02:22.546Z,96145.88
2022-08-07T08:05:01.640Z,96149.75
2022-08-07T08:07:35.739Z,96153.59
2022-08-07T08:10:08.974Z,96150.91
2022-08-07T08:12:52.616Z,96158.56
2022-08-07T08:15:25.555Z,96143.19
2022-08-07T08:17:57.822Z,96144.38
2022-08-07T08:20:31.950Z,96150.91
2022-08-07T08:22:58.593Z,96149.31
2022-08-07T08:25:42.385Z,96160.06
2022-08-07T08:28:11.381Z,96160.75
2022-08-07T08:30:43.099Z,96156.97
2022-08-07T08:33:17.979Z,96152.75
2022-08-07T08:35:50.614Z,96157.38
2022-08-07T08:38:17.552Z,96152.44
2022-08-07T08:40:46.943Z,96157.81
2022-08-07T08:43:13.825Z,96147.06
2022-08-07T08:45:59.154Z,96153.59
2022-08-07T08:48:32.340Z,96155.56
2022-08-07T08:51:03.377Z,96148.56
2022-08-07T08:53:40.787Z,96152.13
2022-08-07T08:56:07.223Z,96154.47
2022-08-07T08:58:34.810Z,96152.66
2022-08-07T09:01:02.414Z,96156.06
2022-08-07T09:03:49.907Z,96150.38
2022-08-07T09:06:19.452Z,96144.47
2022-08-07T09:08:46.836Z,96151.72
2022-08-07T09:11:13.988Z,96147.91
2022-08-07T09:13:53.606Z,96152.84
2022-08-07T09:16:26.718Z,96152.19
2022-08-07T09:18:58.358Z,96145.75
2022-08-07T09:21:58.550Z,96150.78
2022-08-07T09:24:33.194Z,96165.41
2022-08-07T09:26:58.098Z,96153.56
2022-08-07T09:30:05.239Z,96155.94
2022-08-07T09:32:18.870Z,96147.88
2022-08-07T09:34:53.977Z,96151.00
2022-08-07T09:37:47.983Z,96151.72
2022-08-07T09:40:10.022Z,96151.84
2022-08-07T09:42:36.413Z,96158.38
2022-08-07T09:47:49.461Z,96155.44
2022-08-07T09:48:00.863Z,96152.75
2022-08-07T09:50:30.459Z,96154.09
2022-08-07T09:52:58.616Z,96149.53
2022-08-07T09:55:36.869Z,96156.13
2022-08-07T09:58:13.606Z,96153.94
2022-08-07T10:00:40.974Z,96146.28
2022-08-07T10:03:08.103Z,96154.78
2022-08-07T10:05:58.890Z,96149.41
2022-08-07T10:08:21.425Z,96144.47
2022-08-07T10:14:00.281Z,96142.13
2022-08-07T10:16:23.546Z,96140.16
2022-08-07T10:18:50.830Z,96147.91
2022-08-07T10:21:50.688Z,96145.72
2022-08-07T10:24:08.649Z,96138.06
2022-08-07T10:26:35.229Z,96137.66
2022-08-07T10:29:01.608Z,96135.91
2022-08-07T10:31:28.227Z,96137.81
2022-08-07T10:34:05.625Z,96134.78
2022-08-07T10:36:40.417Z,96133.31
2022-08-07T10:39:07.068Z,96124.47
2022-08-07T10:41:52.865Z,96129.09
2022-08-07T10:44:33.844Z,96129.94
2022-08-07T10:47:05.692Z,96119.53
2022-08-07T10:49:49.164Z,96125.66
2022-08-07T10:52:17.573Z,96129.09
2022-08-07T10:54:53.157Z,96116.41
2022-08-07T10:57:34.073Z,96119.31
2022-08-07T11:00:01.379Z,96115.56
2022-08-07T11:02:33.627Z,96106.91
2022-08-07T11:05:08.537Z,96110.97
2022-08-07T11:07:59.107Z,96107.19
2022-08-07T11:10:24.231Z,96109.13
2022-08-07T11:13:02.332Z,96109.88
2022-08-07T11:15:31.872Z,96113.72
2022-08-07T11:18:03.337Z,96105.34
2022-08-07T11:20:30.928Z,96105.75
2022-08-07T11:22:57.335Z,96107.28
2022-08-07T11:25:23.707Z,96108.78
2022-08-07T11:28:02.476Z,96095.78
2022-08-07T11:30:41.751Z,96104.91
2022-08-07T11:33:14.240Z,96112.72
2022-08-07T11:36:00.761Z,96098.97
2022-08-07T11:38:28.218Z,96107.50
2022-08-07T11:40:54.840Z,96106.53
2022-08-07T11:43:29.651Z,96094.28
2022-08-07T11:46:09.334Z,96109.31
2022-08-07T11:48:35.782Z,96105.44
2022-08-07T11:51:03.967Z,96105.75
2022-08-07T11:53:35.645Z,96096.22
2022-08-07T11:56:09.009Z,96102.34
2022-08-07T11:58:49.793Z,96098.47
2022-08-07T12:01:20.323Z,96098.91
2022-08-07T12:03:48.745Z,96100.38
2022-08-07T12:06:39.667Z,96098.13
2022-08-07T12:09:01.581Z,96100.06
2022-08-07T12:11:32.406Z,96099.41
2022-08-07T12:13:59.089Z,96090.03
2022-08-07T12:16:30.127Z,96092.00
2022-08-07T12:18:57.172Z,96086.00
2022-08-07T12:22:35.683Z,96093.28
2022-08-07T12:24:12.396Z,96086.41
2022-08-07T12:26:56.354Z,96097.91
2022-08-07T12:29:38.155Z,96084.91
2022-08-07T12:32:12.065Z,96088.00
2022-08-07T12:34:39.164Z,96080.38
2022-08-07T12:37:08.807Z,96077.25
2022-08-07T12:39:50.825Z,96079.63
2022-08-07T12:42:17.979Z,96072.00
2022-08-07T12:44:53.847Z,96078.47
2022-08-07T12:47:27.016Z,96088.75
2022-08-07T12:50:04.350Z,96081.88
2022-08-07T12:52:33.967Z,96079.13
2022-08-07T12:55:05.400Z,96081.03
2022-08-07T12:57:39.122Z,96068.03
2022-08-07T13:00:32.519Z,96076.94
2022-08-07T13:03:01.012Z,96068.56
2022-08-07T13:06:04.114Z,96066.97
2022-08-07T13:08:21.629Z,96070.41
2022-08-07T13:10:51.569Z,96053.53
2022-08-07T13:13:46.687Z,96056.97
2022-08-07T13:16:05.147Z,96057.28
2022-08-07T13:18:31.529Z,96056.13
2022-08-07T13:21:00.868Z,96061.06
2022-08-07T13:24:02.146Z,96044.19
2022-08-07T13:26:18.369Z,96039.94
2022-08-07T13:28:46.452Z,96047.03
2022-08-07T13:31:13.168Z,96044.72
2022-08-07T13:34:30.826Z,96034.09
2022-08-07T13:36:26.643Z,96041.41
2022-08-07T13:38:54.536Z,96026.03
2022-08-07T13:41:21.093Z,96026.03
2022-08-07T13:43:52.705Z,96024.84
2022-08-07T13:46:28.794Z,96032.91
2022-08-07T13:48:59.632Z,96022.16
2022-08-07T13:51:28.374Z,96027.84
2022-08-07T13:54:16.511Z,96030.53
2022-08-07T13:56:51.795Z,96033.13
2022-08-07T13:59:22.140Z,96029.28
2022-08-07T14:01:50.824Z,96026.13
2022-08-07T14:04:22.028Z,96027.91
2022-08-07T14:06:56.230Z,96010.91
2022-08-07T14:10:17.822Z,96022.59
2022-08-07T14:12:10.461Z,96014.53
2022-08-07T14:14:37.204Z,96019.91
2022-08-07T14:17:51.440Z,96024.63
2022-08-07T14:20:43.049Z,96025.72
2022-08-07T14:22:36.369Z,96017.22
2022-08-07T14:25:03.919Z,96023.78
2022-08-07T14:28:12.585Z,96017.22
2022-08-07T14:30:27.681Z,96023.69
2022-08-07T14:32:59.588Z,96014.84
2022-08-07T14:35:42.785Z,96006.78
2022-08-07T14:38:26.523Z,96012.50
2022-08-07T14:40:57.607Z,96003.50
2022-08-07T14:43:57.847Z,96006.38
2022-08-07T14:46:11.011Z,96018.78
2022-08-07T14:48:43.847Z,96012.41
2022-08-07T14:51:15.888Z,96007.81
2022-08-07T14:54:03.667Z,96006.72
2022-08-07T14:56:30.026Z,96021.66
2022-08-07T14:58:56.943Z,96015.09
2022-08-07T15:01:23.371Z,96006.28
2022-08-07T15:03:52.203Z,96006.59
2022-08-07T15:06:19.925Z,96007.81
2022-08-07T15:08:50.113Z,96019.31
2022-08-07T15:11:53.653Z,96013.50
2022-08-07T15:14:09.958Z,96013.50
2022-08-07T15:16:37.227Z,96010.38
2022-08-07T15:19:03.609Z,96015.94
2022-08-07T15:27:07.445Z,96020.72
2022-08-07T15:30:10.225Z,96006.50
2022-08-07T15:32:39.047Z,96004.56
2022-08-07T15:35:06.666Z,96003.38
2022-08-07T15:38:04.330Z,96002.97
2022-08-07T15:43:06.425Z,95998.75
2022-08-07T15:45:56.752Z,96002.97
2022-08-07T15:48:22.573Z,95995.31
2022-08-07T15:53:51.559Z,95996.38
2022-08-07T15:56:18.912Z,95997.47
2022-08-07T15:58:45.400Z,96015.84
2022-08-07T16:01:20.383Z,96003.16
2022-08-07T16:03:58.465Z,96008.13
2022-08-07T16:06:25.042Z,96017.47
2022-08-07T16:08:52.942Z,95995.97
2022-08-07T16:11:27.404Z,95998.66
2022-08-07T16:13:58.670Z,96005.22
2022-08-07T16:16:47.668Z,96007.47
2022-08-07T16:19:13.164Z,95988.66
2022-08-07T16:22:01.944Z,95994.03
2022-08-07T16:24:34.769Z,95989.41
2022-08-07T16:27:01.771Z,95990.16
2022-08-07T16:30:11.936Z,95985.53
2022-08-07T16:32:34.671Z,95994.69
2022-08-07T16:35:02.108Z,95986.16
2022-08-07T16:38:05.694Z,95984.53
2022-08-07T16:40:34.283Z,95979.25
2022-08-07T16:43:02.202Z,95985.31
2022-08-07T16:46:40.407Z,95977.25
2022-08-07T16:48:15.269Z,95971.56
2022-08-07T16:50:52.644Z,95974.25
2022-08-07T16:54:01.912Z,95974.25
2022-08-07T16:56:10.810Z,95979.63
2022-08-07T16:59:02.345Z,95986.16
2022-08-07T17:01:23.673Z,95987.69
2022-08-07T17:03:59.898Z,95987.69
2022-08-07T17:06:31.448Z,95986.50
2022-08-07T17:09:09.883Z,95988.00
2022-08-07T17:12:04.725Z,95990.69
2022-08-07T17:14:23.982Z,95983.69
2022-08-07T17:16:56.037Z,95983.22
2022-08-07T17:20:00.791Z,95983.03
2022-08-07T17:22:10.596Z,95975.22
2022-08-07T17:24:37.091Z,95973.38
2022-08-07T17:27:03.477Z,95982.94
2022-08-07T17:30:14.245Z,95978.75
2022-08-07T17:32:30.572Z,95977.56
2022-08-07T17:35:51.369Z,95976.06
2022-08-07T17:38:09.365Z,95988.31
2022-08-07T17:40:31.288Z,95992.06
2022-08-07T17:42:58.289Z,95996.72
2022-08-07T17:45:26.356Z,96004.34
2022-08-07T17:47:54.377Z,95991.34
2022-08-07T17:50:20.941Z,95991.34
2022-08-07T17:52:47.340Z,95992.84
2022-08-07T17:55:14.451Z,96007.13
2022-08-07T17:58:01.992Z,95996.19
2022-08-07T18:00:34.099Z,95992.19
2022-08-07T18:03:18.154Z,95994.34
2022-08-07T18:06:01.833Z,96000.47
2022-08-07T18:08:31.432Z,96000.13
2022-08-07T18:12:07.938Z,95995.09
2022-08-07T18:13:44.353Z,96014.34
2022-08-07T18:16:12.198Z,95999.41
2022-08-07T18:21:02.816Z,96000.13
2022-08-07T18:21:51.795Z,96008.19
2022-08-07T18:24:33.342Z,96011.97
2022-08-07T18:27:00.949Z,96012.72
2022-08-07T18:30:07.865Z,96004.66
2022-08-07T18:32:14.091Z,96007.78
2022-08-07T18:35:00.525Z,96025.44
2022-08-07T18:38:55.247Z,96008.16
2022-08-07T18:40:18.575Z,96019.16
2022-08-07T18:43:00.668Z,96029.28
2022-08-07T18:45:43.415Z,96025.41
2022-08-07T18:50:03.384Z,96023.91
2022-08-07T18:50:59.955Z,96018.09
2022-08-07T18:53:39.359Z,96008.19
2022-08-07T18:56:06.326Z,96021.22
2022-08-07T18:58:32.761Z,96025.84
2022-08-07T19:01:00.943Z,96021.22
2022-08-07T19:03:37.930Z,96040.06
2022-08-07T19:06:05.478Z,96033.16
2022-08-07T19:08:31.871Z,96035.00
2022-08-07T19:10:59.084Z,96039.94
2022-08-07T19:13:25.492Z,96038.00
2022-08-07T19:16:05.903Z,96044.50
2022-08-07T19:18:45.102Z,96045.72
2022-08-07T19:21:51.385Z,96044.56
2022-08-07T19:24:00.300Z,96052.63
2022-08-07T19:26:29.086Z,96049.59
2022-08-07T19:30:54.441Z,96060.34
2022-08-07T19:32:08.133Z,96056.94
2022-08-07T19:34:34.427Z,96053.81
2022-08-07T19:37:09.927Z,96068.00
2022-08-07T19:39:57.538Z,96058.00
2022-08-07T19:42:30.379Z,96064.88
2022-08-07T19:45:09.585Z,96062.19
2022-08-07T19:47:36.515Z,96054.88
2022-08-07T19:50:03.733Z,96053.72
2022-08-07T19:52:58.410Z,96053.59
2022-08-07T19:55:25.697Z,96062.91
2022-08-07T19:58:14.287Z,96062.75
2022-08-07T20:00:55.432Z,96069.84
2022-08-07T20:03:33.625Z,96067.56
2022-08-07T20:06:02.469Z,96061.47
2022-08-07T20:08:29.285Z,96071.34
2022-08-07T20:10:56.609Z,96073.72
2022-08-07T20:13:32.090Z,96057.25
2022-08-07T20:15:58.749Z,96055.31
2022-08-07T20:18:32.495Z,96054.56
2022-08-07T20:21:00.288Z,96046.50
2022-08-07T20:23:41.768Z,96044.22
2022-08-07T20:26:10.372Z,96032.75
2022-08-07T20:28:36.845Z,96033.81
2022-08-07T20:31:05.380Z,96035.75
2022-08-07T20:33:38.272Z,96047.03
2022-08-07T20:36:05.164Z,96046.31
2022-08-07T20:38:32.273Z,96037.69
2022-08-07T20:40:59.646Z,96037.03
2022-08-07T20:43:30.403Z,96043.16
2022-08-07T20:46:25.794Z,96029.38
2022-08-07T20:49:02.427Z,96042.50
2022-08-07T20:51:29.742Z,96038.22
2022-08-07T20:54:04.580Z,96041.03
2022-08-07T20:56:38.826Z,96046.41
2022-08-07T21:00:04.440Z,96051.03
2022-08-07T21:01:55.079Z,96051.03
2022-08-07T21:04:23.611Z,96041.03
2022-08-07T21:06:53.397Z,96036.38
2022-08-07T21:09:24.304Z,96038.34
2022-08-07T21:11:51.847Z,96036.38
2022-08-07T21:14:32.316Z,96036.16
2022-08-07T21:18:01.204Z,96040.44
2022-08-07T21:20:00.726Z,96036.59
2022-08-07T21:22:33.255Z,96034.44
2022-08-07T21:24:59.896Z,96044.88
2022-08-07T21:27:40.208Z,96033.38
2022-08-07T21:30:13.638Z,96052.19
2022-08-07T21:32:47.037Z,96036.06
2022-08-07T21:35:16.173Z,96039.50
2022-08-07T21:37:58.671Z,96048.03
2022-08-07T21:40:26.232Z,96052.63
2022-08-07T21:42:53.550Z,96048.75
2022-08-07T21:46:08.016Z,96052.63
2022-08-07T21:48:06.566Z,96051.03
2022-08-07T21:50:52.937Z,96052.94
2022-08-07T21:53:20.160Z,96053.50
2022-08-07T21:55:48.471Z,96063.63
2022-08-07T21:58:30.440Z,96056.38
2022-08-07T22:00:59.006Z,96056.72
2022-08-07T22:03:30.971Z,96042.97
2022-08-07T22:05:58.311Z,96049.50
2022-08-07T22:08:24.930Z,96054.13
2022-08-07T22:10:51.345Z,96056.81
2022-08-07T22:13:24.733Z,96055.31
2022-08-07T22:16:41.977Z,96048.75
2022-08-07T22:18:50.475Z,96056.50
2022-08-07T22:21:19.268Z,96048.03
2022-08-07T22:23:46.880Z,96060.69
2022-08-07T22:26:13.438Z,96053.41
2022-08-07T22:28:39.867Z,96054.88
2022-08-07T22:31:07.206Z,96054.88
2022-08-07T22:33:51.040Z,96058.84
2022-08-07T22:36:20.014Z,96054.13
2022-08-07T22:38:48.077Z,96057.78
2022-08-07T22:41:14.675Z,96055.66
2022-08-07T22:43:41.136Z,96058.66
2022-08-07T22:46:43.323Z,96072.53
2022-08-07T22:49:02.237Z,96071.00
2022-08-07T22:51:36.670Z,96064.88
2022-08-07T22:54:07.767Z,96067.56
2022-08-07T22:56:35.520Z,96054.56
2022-08-07T22:59:02.320Z,96057.25
2022-08-07T23:01:49.383Z,96071.47
2022-08-07T23:04:17.176Z,96071.47
2022-08-07T23:06:51.417Z,96073.72
2022-08-07T23:10:05.862Z,96078.31
2022-08-07T23:12:05.795Z,96066.84
2022-08-07T23:14:35.581Z,96080.56
2022-08-07T23:17:01.985Z,96079.28
2022-08-07T23:19:47.715Z,96075.22
2022-08-07T23:22:14.800Z,96074.47
2022-08-07T23:24:45.750Z,96072.22
2022-08-07T23:27:14.038Z,96072.22
2022-08-07T23:29:43.918Z,96075.97
2022-08-07T23:34:19.607Z,96081.00
2022-08-07T23:35:13.210Z,96081.00
2022-08-07T23:38:00.915Z,96076.06
2022-08-07T23:40:28.437Z,96076.06
2022-08-07T23:42:54.880Z,96079.53
2022-08-07T23:45:33.438Z,96088.34
2022-08-07T23:48:07.713Z,96076.41
2022-08-07T23:50:35.537Z,96078.31
2022-08-07T23:53:06.462Z,96083.72
2022-08-07T23:55:52.052Z,96074.91
2022-08-07T23:58:24.116Z,96086.28
